Time;durP1;ratioP1;P1;durP2;ratioP2;P2;SDS_P1;SDS_P2;PMS_P1;PMS_P2;Temp;Humidity;BMP_temperature;BMP_pressure;BME280_temperature;BME280_humidity;BME280_pressure;Samples;Min_cycle;Max_cycle;Signal;HPM_P1;HPM_P2
2024/02/28 00:00:24;;;;;;;75.60;19.70;;;3.60;99.90;;;2.00;100.00;101496.22;4889056;28;20092;-83
2024/02/28 00:02:50;;;;;;;89.20;22.33;;;3.60;99.90;;;2.01;100.00;101497.97;4884286;23;20131;-84
2024/02/28 00:05:16;;;;;;;91.13;22.13;;;3.60;99.90;;;2.08;100.00;101506.63;4829333;29;20084;-85
2024/02/28 00:07:42;;;;;;;88.75;22.77;;;3.60;99.90;;;2.11;100.00;101504.00;4894025;28;20519;-83
2024/02/28 00:10:17;;;;;;;104.88;23.23;;;3.60;99.90;;;2.18;100.00;101509.22;4853626;29;20035;-85
2024/02/28 00:12:43;;;;;;;96.68;23.60;;;3.60;99.90;;;2.17;100.00;101507.47;4877299;29;20543;-83
2024/02/28 00:15:10;;;;;;;116.32;24.35;;;3.70;99.90;;;2.21;100.00;101501.41;4845879;29;20028;-83
2024/02/28 00:17:42;;;;;;;130.73;25.20;;;3.70;99.90;;;2.22;100.00;101500.53;4854995;28;20031;-86
2024/02/28 00:20:09;;;;;;;88.75;21.95;;;3.70;99.90;;;2.22;100.00;101499.69;4856857;29;20062;-84
2024/02/28 00:22:38;;;;;;;74.95;19.98;;;3.70;99.90;;;2.22;100.00;101503.13;4860382;29;20591;-84
2024/02/28 00:25:13;;;;;;;66.80;18.45;;;3.70;99.90;;;2.29;100.00;101503.16;4868830;29;20242;-84
2024/02/28 00:27:39;;;;;;;55.20;17.67;;;3.70;99.90;;;2.32;100.00;101497.97;4859374;29;20130;-84
2024/02/28 00:30:06;;;;;;;59.03;16.45;;;3.70;99.90;;;2.35;100.00;101488.41;4845133;29;20096;-85
2024/02/28 00:32:40;;;;;;;58.15;17.05;;;3.80;99.90;;;2.39;100.00;101491.88;4827873;29;20059;-85
2024/02/28 00:35:07;;;;;;;55.28;15.93;;;3.80;99.90;;;2.42;100.00;101495.34;4869534;29;20046;-85
2024/02/28 00:37:33;;;;;;;82.63;20.52;;;3.80;99.90;;;2.40;100.00;101496.22;4875235;29;20048;-83
2024/02/28 00:39:59;;;;;;;73.03;20.00;;;3.80;99.90;;;2.39;100.00;101489.28;4891423;29;20032;-83
2024/02/28 00:42:33;;;;;;;79.00;20.45;;;3.80;99.90;;;2.36;100.00;101490.16;4832595;29;20059;-85
2024/02/28 00:44:59;;;;;;;79.85;20.73;;;3.80;99.90;;;2.38;100.00;101496.22;4873823;29;20530;-83
2024/02/28 00:47:26;;;;;;;74.35;21.52;;;3.80;99.90;;;2.41;100.00;101497.94;4841000;29;20040;-85
2024/02/28 00:49:59;;;;;;;66.97;18.63;;;4.20;99.90;;;2.45;100.00;101491.88;4851161;29;20123;-85
2024/02/28 00:52:25;;;;;;;62.45;17.70;;;3.90;99.90;;;2.47;100.00;101496.22;4861168;29;20076;-83
2024/02/28 00:54:51;;;;;;;49.30;16.20;;;3.90;99.90;;;2.49;100.00;101501.41;4856320;29;20404;-83
2024/02/28 00:57:18;;;;;;;60.78;17.92;;;3.90;99.90;;;2.44;100.00;101501.44;4866919;29;20047;-86
2024/02/28 00:59:54;;;;;;;60.28;17.77;;;3.90;99.90;;;2.43;100.00;101506.63;4799388;29;20032;-85
2024/02/28 01:02:21;;;;;;;68.50;19.92;;;3.70;99.90;;;2.36;100.00;101494.50;4846381;23;21139;-83
2024/02/28 01:04:47;;;;;;;56.00;18.33;;;3.80;99.90;;;2.36;100.00;101495.34;4901192;28;20058;-85
2024/02/28 01:07:20;;;;;;;57.13;17.80;;;3.80;99.90;;;2.28;100.00;101504.88;4889154;28;20069;-83
2024/02/28 01:09:46;;;;;;;63.88;18.40;;;3.70;99.90;;;2.12;100.00;101509.22;4913688;28;20550;-85
2024/02/28 01:12:12;;;;;;;67.07;18.42;;;3.80;99.90;;;2.11;100.00;101517.84;4891991;28;20027;-83
2024/02/28 01:14:38;;;;;;;76.93;19.23;;;3.70;99.90;;;2.02;100.00;101516.13;4879392;28;20104;-83
2024/02/28 01:17:13;;;;;;;72.75;18.67;;;3.70;99.90;;;2.04;100.00;101509.19;4922476;28;20050;-84
2024/02/28 01:19:39;;;;;;;72.60;19.02;;;3.60;99.90;;;1.96;100.00;101515.25;4890899;28;20535;-84
2024/02/28 01:22:05;;;;;;;78.78;19.05;;;3.60;99.90;;;1.89;100.00;101514.38;4906140;28;20058;-85
2024/02/28 01:24:33;;;;;;;93.20;20.60;;;3.60;99.90;;;1.86;100.00;101504.00;4865606;28;20078;-84
2024/02/28 01:27:01;;;;;;;114.18;20.08;;;3.50;99.90;;;1.79;100.00;101510.00;4916502;28;20055;-83
2024/02/28 01:29:27;;;;;;;326.38;28.50;;;3.50;99.90;;;1.77;100.00;101507.44;4918770;28;20027;-83
2024/02/28 01:31:53;;;;;;;393.23;27.27;;;4.30;99.90;;;1.71;100.00;101510.00;4904202;28;20038;-83
2024/02/28 01:34:19;;;;;;;370.08;29.42;;;3.40;99.90;;;1.70;100.00;101503.06;4870511;28;20107;-83
2024/02/28 01:36:45;;;;;;;432.30;31.15;;;3.40;99.90;;;1.69;100.00;101509.16;4869723;29;20039;-84
2024/02/28 01:39:11;;;;;;;429.08;30.33;;;;;;;1.72;100.00;101508.28;4861896;28;20078;-84
2024/02/28 01:41:49;;;;;;;343.02;26.88;;;3.40;99.90;;;1.64;100.00;101503.94;4897774;28;20106;-84
2024/02/28 01:44:15;;;;;;;338.52;27.15;;;3.40;99.90;;;1.59;100.00;101504.78;4913648;23;20035;-81
2024/02/28 01:46:49;;;;;;;377.00;24.90;;;3.30;99.90;;;1.55;100.00;101510.81;4911036;28;20435;-79
2024/02/28 01:49:16;;;;;;;439.20;31.23;;;3.30;99.90;;;1.54;100.00;101509.09;4880525;28;20066;-81
2024/02/28 01:51:47;;;;;;;224.75;19.55;;;3.30;99.90;;;1.46;100.00;101505.59;4892004;28;20034;-79
2024/02/28 01:54:16;;;;;;;467.52;30.08;;;3.20;99.90;;;1.47;100.00;101502.13;4898419;28;20086;-80
2024/02/28 01:56:43;;;;;;;413.40;29.98;;;3.20;99.90;;;1.53;100.00;101512.53;4878527;28;20558;-79
2024/02/28 01:59:11;;;;;;;447.92;27.90;;;3.20;99.90;;;1.51;100.00;101509.06;4888195;29;20032;-81
2024/02/28 02:01:46;;;;;;;318.58;28.10;;;3.20;99.90;;;1.54;100.00;101515.16;4871580;28;20212;-81
2024/02/28 02:04:11;;;;;;;350.00;27.80;;;3.20;99.90;;;1.49;100.00;101514.28;4895233;28;20127;-80
2024/02/28 02:06:47;;;;;;;423.65;28.70;;;3.20;99.90;;;1.53;100.00;101510.81;4893870;28;20560;-81
2024/02/28 02:09:13;;;;;;;292.17;22.80;;;3.20;99.90;;;1.53;100.00;101512.53;4891820;28;20146;-80
2024/02/28 02:11:39;;;;;;;491.90;27.98;;;3.20;99.90;;;1.50;100.00;101512.53;4890998;28;20035;-81
2024/02/28 02:14:05;;;;;;;395.67;28.02;;;3.20;99.90;;;1.49;100.00;101506.50;4852402;28;20044;-80
2024/02/28 02:16:31;;;;;;;433.17;27.45;;;3.20;99.90;;;1.47;100.00;101500.44;4895876;28;20038;-80
2024/02/28 02:19:08;;;;;;;168.00;19.83;;;3.20;99.90;;;1.41;100.00;101509.06;4920011;28;20511;-80
2024/02/28 02:21:58;;;;;;;172.63;20.52;;;3.10;99.90;;;1.35;100.00;101506.44;4914660;28;20125;-81
2024/02/28 02:24:23;;;;;;;179.15;20.85;;;3.10;99.90;;;1.30;100.00;101509.88;4912572;28;20055;-80
2024/02/28 02:26:52;;;;;;;108.18;17.13;;;3.00;99.90;;;1.20;100.00;101506.38;4904436;28;20241;-80
2024/02/28 02:29:18;;;;;;;134.02;17.45;;;3.00;99.90;;;1.21;100.00;101502.94;4888216;28;20042;-81
2024/02/28 02:31:51;;;;;;;122.88;18.92;;;3.00;99.90;;;1.20;100.00;101503.78;4902244;28;20043;-80
2024/02/28 02:34:17;;;;;;;118.10;17.05;;;3.00;99.90;;;1.17;100.00;101504.63;4903416;28;20061;-80
2024/02/28 02:36:43;;;;;;;102.90;17.60;;;3.00;99.90;;;1.23;100.00;101503.78;4900240;28;20493;-79
2024/02/28 02:39:08;;;;;;;120.18;18.02;;;2.90;99.90;;;1.12;100.00;101502.88;4913120;28;20538;-81
2024/02/28 02:41:34;;;;;;;105.45;17.83;;;2.90;99.90;;;1.16;100.00;101502.88;4884323;28;20065;-81
2024/02/28 02:44:09;;;;;;;142.20;17.38;;;2.90;99.90;;;1.12;100.00;101497.69;4905092;28;20036;-81
2024/02/28 02:46:35;;;;;;;108.60;17.23;;;2.90;99.90;;;1.07;100.00;101492.47;4913659;28;20050;-80
2024/02/28 02:49:00;;;;;;;93.85;16.17;;;2.80;99.90;;;1.10;100.00;101497.69;4916777;28;20031;-81
2024/02/28 02:51:26;;;;;;;113.82;17.15;;;2.80;99.90;;;1.08;100.00;101488.16;4893340;28;20047;-81
2024/02/28 02:53:59;;;;;;;101.18;15.18;;;2.80;99.90;;;1.10;100.00;101496.81;4873505;28;20040;-80
2024/02/28 02:56:25;;;;;;;123.15;16.67;;;2.80;99.90;;;1.10;100.00;101492.50;4879171;29;20161;-79
2024/02/28 02:58:51;;;;;;;178.30;18.48;;;2.80;99.90;;;1.11;100.00;101490.78;4883189;28;20039;-80
2024/02/28 03:01:17;;;;;;;121.00;16.15;;;2.80;99.90;;;1.10;100.00;101494.22;4883774;28;20049;-81
2024/02/28 03:03:42;;;;;;;165.23;18.55;;;2.90;99.90;;;1.20;100.00;101498.59;4875723;29;20044;-80
2024/02/28 03:06:13;;;;;;;131.32;17.92;;;2.90;99.90;;;1.23;100.00;101501.19;4902461;28;20111;-81
2024/02/28 03:08:39;;;;;;;152.30;18.42;;;2.90;99.90;;;1.28;100.00;101496.91;4872943;28;20034;-79
2024/02/28 03:11:08;;;;;;;212.18;19.42;;;2.90;99.90;;;1.28;100.00;101498.63;4881319;29;20159;-81
2024/02/28 03:13:34;;;;;;;163.80;18.20;;;2.90;99.90;;;1.23;100.00;101496.00;4891204;29;20074;-81
2024/02/28 03:16:07;;;;;;;174.60;19.50;;;2.90;99.90;;;1.22;100.00;101491.69;4860621;28;20039;-81
2024/02/28 03:18:33;;;;;;;178.00;20.98;;;2.90;99.90;;;1.20;100.00;101496.00;4877144;28;20035;-80
2024/02/28 03:20:59;;;;;;;179.35;18.90;;;2.90;99.90;;;1.23;100.00;101498.59;4874156;28;20047;-81
2024/02/28 03:23:25;;;;;;;170.23;19.40;;;2.90;99.90;;;1.23;100.00;101494.28;4879076;29;22401;-81
2024/02/28 03:25:51;;;;;;;147.15;17.98;;;2.90;99.90;;;1.21;100.00;101495.16;4871697;28;20596;-80
2024/02/28 03:28:26;;;;;;;167.45;18.67;;;2.90;99.90;;;1.18;100.00;101490.78;4846337;29;20027;-81
2024/02/28 03:30:51;;;;;;;219.07;20.48;;;2.90;99.90;;;1.14;100.00;101481.25;4869158;28;20501;-80
2024/02/28 03:33:17;;;;;;;158.70;18.52;;;2.90;99.90;;;1.16;100.00;101491.66;4859929;29;20118;-79
2024/02/28 03:35:43;;;;;;;153.63;17.55;;;2.90;99.90;;;1.11;100.00;101488.19;4865448;28;20478;-80
2024/02/28 03:38:14;;;;;;;196.20;18.90;;;2.90;99.90;;;1.10;100.00;101491.63;4896250;28;20697;-81
2024/02/28 03:40:40;;;;;;;197.05;20.45;;;2.80;99.90;;;1.08;100.00;101493.34;4887746;29;20035;-79
2024/02/28 03:43:06;;;;;;;275.58;22.15;;;2.90;99.90;;;1.17;100.00;101496.84;4892793;28;20042;-81
2024/02/28 03:45:41;;;;;;;262.95;21.92;;;2.90;99.90;;;1.13;100.00;101494.25;4905428;28;20047;-80
2024/02/28 03:48:07;;;;;;;310.08;23.88;;;2.80;99.90;;;1.15;100.00;101502.91;4894685;28;20038;-81
2024/02/28 03:50:33;;;;;;;318.83;23.23;;;2.90;99.90;;;1.18;100.00;101506.34;4910724;28;20122;-81
2024/02/28 03:52:59;;;;;;;270.63;23.13;;;2.90;99.90;;;1.21;100.00;101501.19;4889885;28;20051;-81
2024/02/28 03:55:24;;;;;;;297.48;22.67;;;2.90;99.90;;;1.22;100.00;101502.91;4883007;28;20053;-81
2024/02/28 03:57:51;;;;;;;388.23;24.98;;;2.90;99.90;;;1.27;100.00;101504.66;4886554;28;20110;-81
2024/02/28 04:00:20;;;;;;;381.83;24.13;;;2.90;99.90;;;1.23;100.00;101514.16;4884149;28;20115;-81
2024/02/28 04:02:46;;;;;;;264.70;19.27;;;2.90;99.90;;;1.18;100.00;101501.16;4882408;28;20147;-80
2024/02/28 04:05:12;;;;;;;339.63;21.92;;;2.90;99.90;;;1.17;100.00;101514.16;4886553;28;20054;-79
2024/02/28 04:07:38;;;;;;;286.58;18.38;;;2.80;99.90;;;1.03;100.00;101517.50;4875861;29;20400;-81
2024/02/28 04:10:05;;;;;;;275.50;20.60;;;2.80;99.90;;;0.99;100.00;101522.69;4868419;28;20082;-80
2024/02/28 04:12:31;;;;;;;244.82;17.17;;;2.70;99.90;;;0.92;100.00;101523.53;4906432;28;20039;-81
2024/02/28 04:15:06;;;;;;;261.83;17.88;;;2.70;99.90;;;0.91;100.00;101525.25;4888737;28;20042;-81
2024/02/28 04:17:32;;;;;;;284.10;20.17;;;2.70;99.90;;;0.93;100.00;101536.50;4885123;29;20047;-79
2024/02/28 04:19:57;;;;;;;206.98;18.63;;;2.70;99.90;;;0.94;100.00;101534.78;4882615;29;20137;-81
2024/02/28 04:22:23;;;;;;;239.40;17.98;;;2.70;99.90;;;0.93;100.00;101531.31;4895188;28;20035;-80
2024/02/28 04:24:55;;;;;;;278.08;18.95;;;2.70;99.90;;;0.94;100.00;101538.22;4901937;28;20049;-80
2024/02/28 04:27:21;;;;;;;230.35;18.20;;;2.60;99.90;;;0.89;100.00;101534.75;4905052;28;20099;-80
2024/02/28 04:29:47;;;;;;;269.73;18.05;;;2.70;99.90;;;0.93;100.00;101525.22;4898677;28;20571;-82
2024/02/28 04:32:13;;;;;;;208.82;17.63;;;2.70;99.90;;;0.97;100.00;101524.41;4930286;28;20496;-78
2024/02/28 04:34:39;;;;;;;215.82;17.75;;;2.70;99.90;;;1.02;100.00;101509.75;4911506;28;20036;-80
2024/02/28 04:37:14;;;;;;;270.23;18.90;;;2.70;99.90;;;1.08;100.00;101503.72;4890542;29;20103;-80
2024/02/28 04:39:40;;;;;;;286.10;19.27;;;2.70;99.90;;;1.11;100.00;101503.75;4893473;28;20048;-81
2024/02/28 04:42:07;;;;;;;243.48;18.92;;;2.70;99.90;;;1.17;100.00;101509.81;4887013;28;20548;-81
2024/02/28 04:44:40;;;;;;;226.32;17.90;;;2.70;99.90;;;1.24;100.00;101510.72;4877318;28;20095;-81
2024/02/28 04:47:06;;;;;;;216.35;17.20;;;2.80;99.90;;;1.26;100.00;101518.50;4886818;29;20044;-81
2024/02/28 04:49:32;;;;;;;259.25;18.40;;;2.80;99.90;;;1.25;100.00;101515.03;4897861;28;20609;-80
2024/02/28 04:51:58;;;;;;;242.30;17.13;;;2.80;99.90;;;1.23;100.00;101516.75;4909052;28;20045;-81
2024/02/28 04:54:29;;;;;;;199.10;16.55;;;2.80;99.90;;;1.20;100.00;101525.38;4879622;28;20054;-80
2024/02/28 04:56:55;;;;;;;238.73;17.17;;;2.80;99.90;;;1.13;100.00;101533.16;4835703;29;20053;-79
2024/02/28 04:59:20;;;;;;;171.18;14.90;;;2.80;99.90;;;1.11;100.00;101540.06;4884974;28;20045;-81
2024/02/28 05:01:47;;;;;;;98.15;12.93;;;2.70;99.90;;;0.96;100.00;101536.50;4882231;28;20129;-81
2024/02/28 05:04:13;;;;;;;87.30;12.23;;;2.70;99.90;;;0.89;100.00;101546.84;4890589;28;20043;-80
2024/02/28 05:06:38;;;;;;;108.45;13.77;;;2.60;99.90;;;0.89;100.00;101549.44;4879074;28;20043;-81
2024/02/28 05:09:10;;;;;;;83.53;11.27;;;2.60;99.90;;;0.88;100.00;101553.72;4886869;28;20047;-80
2024/02/28 05:11:35;;;;;;;87.95;11.38;;;2.60;99.90;;;0.83;100.00;101552.84;4898358;28;20163;-80
2024/02/28 05:14:01;;;;;;;100.70;13.55;;;2.60;99.90;;;0.85;100.00;101551.13;4897678;29;20114;-80
2024/02/28 05:16:27;;;;;;;77.85;12.20;;;2.60;99.90;;;0.87;100.00;101549.44;4942484;29;20039;-80
2024/02/28 05:18:53;;;;;;;82.40;13.63;;;2.60;99.90;;;0.92;100.00;101549.44;4892272;28;20031;-80
2024/02/28 05:21:27;;;;;;;73.18;12.25;;;2.60;99.90;;;0.97;100.00;101553.81;4891197;29;20142;-81
2024/02/28 05:23:52;;;;;;;68.97;10.65;;;2.60;99.90;;;1.00;100.00;101553.81;4883297;28;20197;-79
2024/02/28 05:26:18;;;;;;;54.92;10.07;;;2.60;99.90;;;1.02;100.00;101556.44;4889882;28;20103;-81
2024/02/28 05:28:44;;;;;;;64.05;10.70;;;2.60;99.90;;;1.05;100.00;101558.16;4912430;28;20046;-81
2024/02/28 05:31:26;;;;;;;54.28;9.15;;;2.60;99.90;;;1.08;100.00;101561.66;4873847;29;20081;-80
2024/02/28 05:33:59;;;;;;;56.35;10.60;;;2.70;99.90;;;1.15;100.00;101557.38;4886632;28;20051;-81
2024/02/28 05:36:30;;;;;;;50.97;9.88;;;2.70;99.90;;;1.25;100.00;101553.94;4896540;28;20039;-81
2024/02/28 05:39:05;;;;;;;47.33;9.57;;;2.80;99.90;;;1.34;100.00;101568.69;4873924;29;20039;-81
2024/02/28 05:41:31;;;;;;;50.13;10.05;;;2.80;99.90;;;1.40;100.00;101569.63;4890394;28;20051;-81
2024/02/28 05:43:57;;;;;;;45.95;9.85;;;2.90;99.90;;;1.46;100.00;101560.97;4882402;28;20052;-81
2024/02/28 05:46:23;;;;;;;54.17;9.80;;;3.00;99.90;;;1.50;100.00;101567.06;4906729;28;20127;-80
2024/02/28 05:48:56;;;;;;;51.55;9.32;;;2.90;99.90;;;1.42;100.00;101577.38;4900705;28;20053;-80
2024/02/28 05:51:22;;;;;;;43.15;9.00;;;2.90;99.90;;;1.37;100.00;101584.28;4896625;28;20435;-80
2024/02/28 05:53:51;;;;;;;52.10;9.88;;;2.90;99.90;;;1.33;100.00;101588.59;4884767;29;20047;-80
2024/02/28 05:56:22;;;;;;;63.75;11.20;;;2.90;99.90;;;1.32;100.00;101593.75;4881931;29;20036;-81
2024/02/28 05:58:48;;;;;;;55.88;11.95;;;2.90;99.90;;;1.32;100.00;101596.34;4869475;29;20043;-81
2024/02/28 06:01:18;;;;;;;54.33;12.00;;;2.90;99.90;;;1.30;100.00;101598.09;4887254;29;20181;-80
2024/02/28 06:03:51;;;;;;;50.40;10.80;;;2.90;99.90;;;1.21;100.00;101593.72;4906968;28;20114;-81
2024/02/28 06:06:17;;;;;;;50.33;11.25;;;2.80;99.90;;;1.22;100.00;101585.06;4897622;29;20095;-81
2024/02/28 06:08:44;;;;;;;52.45;10.35;;;2.80;99.90;;;1.17;100.00;101592.84;4876385;28;20476;-80
2024/02/28 06:11:10;;;;;;;60.38;10.35;;;2.80;99.90;;;1.17;100.00;101607.53;4874515;29;20512;-81
2024/02/28 06:13:45;;;;;;;62.83;11.00;;;2.80;99.90;;;1.15;100.00;101597.16;4893925;29;20404;-81
2024/02/28 06:16:15;;;;;;;56.73;11.47;;;2.80;99.90;;;1.19;100.00;101600.63;4883188;29;20051;-80
2024/02/28 06:18:46;;;;;;;56.47;12.23;;;2.80;99.90;;;1.22;100.00;101616.22;4867083;29;20036;-81
2024/02/28 06:21:13;;;;;;;57.88;11.90;;;2.80;99.90;;;1.14;100.00;101608.38;4903444;28;20570;-81
2024/02/28 06:23:39;;;;;;;70.90;13.65;;;2.80;99.90;;;1.19;100.00;101614.47;4903736;28;20039;-80
2024/02/28 06:26:04;;;;;;;46.17;10.30;;;2.80;99.90;;;1.29;100.00;101617.97;4908345;28;20042;-79
2024/02/28 06:28:32;;;;;;;50.85;10.60;;;2.80;99.90;;;1.31;100.00;101616.25;4892955;28;20042;-80
2024/02/28 06:31:03;;;;;;;46.17;11.38;;;2.90;99.90;;;1.34;100.00;101620.59;4870645;29;20123;-81
2024/02/28 06:33:28;;;;;;;52.88;11.63;;;2.90;99.90;;;1.37;100.00;101629.28;4862375;29;20035;-80
2024/02/28 06:35:54;;;;;;;43.33;9.82;;;2.90;99.90;;;1.36;100.00;101630.16;4901792;28;20139;-81
2024/02/28 06:38:20;;;;;;;36.72;8.93;;;2.90;99.90;;;1.42;100.00;101634.47;4847630;29;20104;-79
2024/02/28 06:40:46;;;;;;;38.53;8.73;;;2.90;99.90;;;1.40;100.00;101626.72;4871993;29;20107;-82
2024/02/28 06:43:16;;;;;;;35.80;7.97;;;3.00;99.90;;;1.42;100.00;101627.56;4881087;28;20100;-80
2024/02/28 06:45:51;;;;;;;32.00;7.85;;;3.00;99.90;;;1.41;100.00;101631.03;4932056;28;20047;-81
2024/02/28 06:48:17;;;;;;;40.60;7.88;;;3.00;99.90;;;1.35;100.00;101617.16;4921157;28;20042;-81
2024/02/28 06:50:43;;;;;;;29.20;7.65;;;2.90;99.90;;;1.37;100.00;101623.22;4894067;28;20062;-82
2024/02/28 06:53:18;;;;;;;35.35;7.43;;;2.90;99.90;;;1.33;100.00;101627.50;4888113;28;20139;-81
2024/02/28 06:55:45;;;;;;;27.17;6.32;;;3.50;99.90;;;1.20;100.00;101625.72;4873709;28;20039;-81
2024/02/28 06:58:11;;;;;;;25.48;6.25;;;2.80;99.90;;;1.12;100.00;101633.44;4886942;28;20051;-81
2024/02/28 07:00:47;;;;;;;22.23;5.22;;;2.80;99.90;;;1.01;100.00;101628.16;4866075;28;20059;-81
2024/02/28 07:03:13;;;;;;;20.52;5.53;;;2.70;99.90;;;0.97;100.00;101631.63;4929285;28;20739;-81
2024/02/28 07:05:38;;;;;;;21.02;4.38;;;2.70;99.90;;;0.87;100.00;101635.00;4910571;28;20046;-80
2024/02/28 07:08:14;;;;;;;18.83;4.90;;;2.70;99.90;;;0.94;100.00;101633.31;4887938;29;20032;-81
2024/02/28 07:10:43;;;;;;;16.80;5.32;;;2.70;99.90;;;0.99;100.00;101640.28;4900467;29;20048;-81
2024/02/28 07:13:16;;;;;;;20.02;5.32;;;2.70;99.90;;;0.98;100.00;101642.84;4875872;29;20050;-80
2024/02/28 07:15:43;;;;;;;14.65;4.35;;;2.60;99.90;;;0.84;100.00;101641.88;4896507;28;20031;-80
2024/02/28 07:18:09;;;;;;;17.85;4.78;;;2.60;99.90;;;0.83;100.00;101648.78;4892348;28;20031;-81
2024/02/28 07:20:35;;;;;;;18.10;5.15;;;2.60;99.90;;;0.84;100.00;101647.91;4904713;28;20054;-80
2024/02/28 07:23:10;;;;;;;18.63;5.20;;;2.60;99.90;;;0.84;100.00;101650.50;4918897;28;20040;-81
2024/02/28 07:25:38;;;;;;;20.08;4.97;;;2.60;99.90;;;0.93;100.00;101642.81;4865363;28;20047;-81
2024/02/28 07:28:04;;;;;;;18.00;5.25;;;2.70;99.90;;;0.94;100.00;101647.13;4881981;28;20063;-81
2024/02/28 07:30:37;;;;;;;20.10;6.25;;;2.60;99.90;;;1.03;100.00;101649.78;4880177;28;20039;-81
2024/02/28 07:33:05;;;;;;;22.00;6.15;;;2.70;99.90;;;1.10;100.00;101653.31;4900088;29;20056;-80
2024/02/28 07:35:31;;;;;;;24.63;6.30;;;2.70;99.90;;;1.21;100.00;101658.59;4876651;29;20703;-81
2024/02/28 07:38:02;;;;;;;18.83;6.00;;;2.80;99.90;;;1.32;100.00;101648.25;4872018;28;20051;-82
2024/02/28 07:40:28;;;;;;;21.33;6.22;;;2.80;99.90;;;1.30;100.00;101662.97;4883628;28;20040;-81
2024/02/28 07:42:54;;;;;;;17.98;5.57;;;2.90;99.90;;;1.18;100.00;101661.16;4883536;28;20639;-80
2024/02/28 07:45:20;;;;;;;19.65;6.18;;;2.80;99.90;;;1.13;100.00;101657.66;4855379;28;20093;-80
2024/02/28 07:47:45;;;;;;;23.40;6.57;;;2.80;99.90;;;1.13;100.00;101661.13;4872339;28;20124;-81
2024/02/28 07:50:11;;;;;;;17.88;5.63;;;2.80;99.90;;;1.06;100.00;101671.44;4882504;28;20075;-81
2024/02/28 07:52:45;;;;;;;21.67;6.45;;;2.80;99.90;;;1.11;100.00;101670.63;4904703;28;20035;-81
2024/02/28 07:55:11;;;;;;;20.90;7.05;;;2.80;99.90;;;1.12;100.00;101661.09;4902155;28;20496;-80
2024/02/28 07:57:36;;;;;;;22.90;7.43;;;2.80;99.90;;;1.11;100.00;101656.78;4909598;28;20050;-82
2024/02/28 08:00:04;;;;;;;25.23;7.00;;;2.80;99.90;;;1.17;100.00;101659.44;4882561;28;20045;-80
2024/02/28 08:02:34;;;;;;;18.75;6.60;;;2.80;99.90;;;1.16;100.00;101652.47;4891512;28;20056;-80
2024/02/28 08:05:00;;;;;;;18.00;6.30;;;2.70;99.90;;;0.84;100.00;101660.00;4887395;28;20051;-80
2024/02/28 08:07:26;;;;;;;25.73;7.32;;;2.60;99.90;;;0.85;100.00;101657.44;4905219;28;20186;-80
2024/02/28 08:09:51;;;;;;;28.75;8.25;;;2.60;99.90;;;0.92;100.00;101651.44;4869308;29;20154;-82
2024/02/28 08:12:20;;;;;;;20.45;7.45;;;2.60;99.90;;;0.85;100.00;101667.81;4927692;28;20982;-82
2024/02/28 08:14:51;;;;;;;28.10;8.27;;;2.60;99.90;;;0.76;100.00;101662.56;4904492;28;20043;-82
2024/02/28 08:17:20;;;;;;;27.83;8.80;;;2.50;99.90;;;0.75;100.00;101668.59;4879659;28;20811;-81
2024/02/28 08:19:45;;;;;;;29.17;8.55;;;2.50;99.90;;;0.78;100.00;101671.22;4870130;28;20031;-83
2024/02/28 08:22:11;;;;;;;31.30;9.23;;;2.50;99.90;;;0.93;100.00;101686.00;4902856;28;20515;-81
2024/02/28 08:24:46;;;;;;;30.33;9.10;;;;;;;1.00;100.00;101688.69;4894919;28;20042;-80
2024/02/28 08:27:12;;;;;;;28.50;9.13;;;2.60;99.90;;;1.06;100.00;101694.78;4894307;28;20051;-82
2024/02/28 08:29:48;;;;;;;27.27;8.05;;;2.60;99.90;;;1.00;100.00;101699.06;4885694;28;20404;-81
2024/02/28 08:32:14;;;;;;;25.15;8.70;;;2.60;99.90;;;1.03;100.00;101699.06;4902077;28;20581;-81
2024/02/28 08:34:46;;;;;;;25.02;8.07;;;2.60;99.90;;;0.98;100.00;101693.00;4851465;29;20074;-81
2024/02/28 08:37:17;;;;;;;31.17;9.98;;;2.60;99.90;;;1.03;100.00;101688.69;4864358;29;20031;-82
2024/02/28 08:39:42;;;;;;;26.88;8.82;;;2.70;99.90;;;1.14;100.00;101693.13;4879693;28;20452;-81
2024/02/28 08:42:08;;;;;;;26.95;8.07;;;2.60;99.90;;;0.95;100.00;101690.38;4884246;28;20054;-81
2024/02/28 08:44:34;;;;;;;28.50;8.73;;;2.60;99.90;;;1.03;100.00;101688.69;4877720;28;20482;-82
2024/02/28 08:47:00;;;;;;;31.27;9.27;;;2.70;99.90;;;1.12;100.00;101692.22;4875432;29;20036;-82
2024/02/28 08:49:33;;;;;;;29.45;9.13;;;2.70;99.90;;;1.06;100.00;101692.19;4890237;28;20031;-82
2024/02/28 08:51:59;;;;;;;23.10;8.02;;;2.70;99.90;;;1.01;100.00;101700.78;4872986;28;20046;-81
2024/02/28 08:54:25;;;;;;;20.30;7.50;;;;;;;1.03;100.00;101704.25;4852862;28;20042;-83
2024/02/28 08:56:51;;;;;;;22.40;7.57;;;2.70;99.90;;;1.03;100.00;101699.06;4895835;28;20054;-82
2024/02/28 08:59:26;;;;;;;20.50;7.60;;;2.60;99.90;;;0.79;100.00;101694.53;4856701;28;20167;-83
2024/02/28 09:01:54;;;;;;;27.90;8.57;;;2.60;99.90;;;0.89;100.00;101705.03;4927328;28;20047;-82
2024/02/28 09:04:26;;;;;;;18.20;6.43;;;2.50;99.90;;;0.71;100.00;101705.69;4909607;28;20047;-83
2024/02/28 09:06:55;;;;;;;23.38;7.35;;;2.40;99.90;;;0.44;100.00;101711.50;4916970;29;20047;-83
2024/02/28 09:09:21;;;;;;;25.88;7.70;;;2.40;99.90;;;0.47;100.00;101721.88;4917149;28;20885;-84
2024/02/28 09:11:48;;;;;;;25.70;7.30;;;2.20;99.90;;;0.24;100.00;101721.59;4920873;28;20046;-83
2024/02/28 09:14:20;;;;;;;32.42;9.75;;;2.20;99.90;;;0.39;100.00;101721.81;4904519;28;20069;-82
2024/02/28 09:16:47;;;;;;;26.48;7.00;;;2.20;99.90;;;0.38;100.00;101728.69;4893548;29;20039;-82
2024/02/28 09:19:13;;;;;;;21.38;7.32;;;2.20;99.90;;;0.48;100.00;101728.81;4905360;28;20046;-83
2024/02/28 09:21:39;;;;;;;31.08;9.57;;;2.20;99.90;;;0.36;100.00;101724.34;4907575;28;20159;-83
2024/02/28 09:24:14;;;;;;;12.68;4.88;;;2.10;99.90;;;0.11;100.00;101736.13;4886197;28;20067;-83
2024/02/28 09:26:43;;;;;;;10.27;4.27;;;1.90;99.90;;;-0.17;100.00;101724.53;4920813;28;20046;-83
2024/02/28 09:29:18;;;;;;;6.70;3.40;;;1.80;99.90;;;-0.19;100.00;101727.13;4954004;28;20035;-82
2024/02/28 09:31:44;;;;;;;21.00;7.50;;;1.80;99.90;;;-0.02;100.00;101737.72;4930406;28;20039;-82
2024/02/28 09:34:10;;;;;;;12.95;5.65;;;1.80;99.90;;;-0.06;100.00;101746.28;4901196;28;20047;-83
2024/02/28 09:36:48;;;;;;;20.80;7.55;;;1.90;99.90;;;0.03;100.00;101748.13;4886735;28;20107;-83
2024/02/28 09:39:22;;;;;;;18.88;7.05;;;1.80;99.90;;;-0.04;100.00;101742.00;4903720;28;20035;-82
2024/02/28 09:41:51;;;;;;;15.77;6.43;;;1.80;99.90;;;-0.05;100.00;101741.09;4925430;28;20100;-83
2024/02/28 09:44:20;;;;;;;14.15;4.63;;;1.80;99.90;;;-0.10;100.00;101741.91;4903554;29;20055;-82
2024/02/28 09:49:51;;;;;;;11.32;5.07;;;1.70;99.90;;;-0.18;100.00;101756.47;4916990;28;20051;-82
2024/02/28 09:52:18;;;;;;;13.77;5.68;;;1.70;99.90;;;-0.07;100.00;101739.34;4916566;28;20045;-83
2024/02/28 09:54:44;;;;;;;19.70;6.78;;;1.80;99.90;;;0.02;100.00;101743.78;4931509;28;20040;-83
2024/02/28 09:57:18;;;;;;;14.80;5.78;;;1.80;99.90;;;-0.07;100.00;101739.34;4930888;28;20758;-83
2024/02/28 09:59:45;;;;;;;22.92;8.48;;;1.80;99.90;;;0.07;100.00;101737.81;4898897;28;20039;-82
2024/02/28 10:02:23;;;;;;;24.60;7.95;;;1.90;99.90;;;0.21;100.00;101743.16;4908562;28;20039;-83
2024/02/28 10:04:50;;;;;;;26.27;8.82;;;2.00;99.90;;;0.46;100.00;101740.88;4909637;28;20051;-83
2024/02/28 10:07:28;;;;;;;26.23;7.57;;;2.00;99.90;;;0.37;100.00;101742.50;4920463;28;20046;-83
2024/02/28 10:09:54;;;;;;;24.67;8.70;;;2.10;99.90;;;0.51;100.00;101749.56;4949017;28;20217;-82
2024/02/28 10:12:26;;;;;;;27.95;8.65;;;2.20;99.90;;;0.55;100.00;101741.84;4925439;28;20035;-82
2024/02/28 10:15:06;;;;;;;;;;;;;;;;;;;;;